sensor_id;sensor_type;location;lat;lon;timestamp;P1;durP1;ratioP1;P2;durP2;ratioP2
673;SDS011;319;48.764;9.174;2023-02-25T00:02:07;2.50;;;2.50;;
673;SDS011;319;48.764;9.174;2023-02-25T00:04:35;2.80;;;2.80;;
673;SDS011;319;48.764;9.174;2023-02-25T00:07:03;2.63;;;2.63;;
673;SDS011;319;48.764;9.174;2023-02-25T00:09:30;2.70;;;2.70;;
673;SDS011;319;48.764;9.174;2023-02-25T00:11:56;2.70;;;2.70;;
673;SDS011;319;48.764;9.174;2023-02-25T00:14:23;2.70;;;2.70;;
673;SDS011;319;48.764;9.174;2023-02-25T00:16:50;2.30;;;2.30;;
673;SDS011;319;48.764;9.174;2023-02-25T00:19:20;2.50;;;2.50;;
673;SDS011;319;48.764;9.174;2023-02-25T00:21:50;3.00;;;2.90;;
673;SDS011;319;48.764;9.174;2023-02-25T00:24:18;2.60;;;2.60;;
673;SDS011;319;48.764;9.174;2023-02-25T00:26:45;2.80;;;2.80;;
673;SDS011;319;48.764;9.174;2023-02-25T00:29:12;2.20;;;2.20;;
673;SDS011;319;48.764;9.174;2023-02-25T00:31:39;2.53;;;2.53;;
673;SDS011;319;48.764;9.174;2023-02-25T00:34:06;1.60;;;1.60;;
673;SDS011;319;48.764;9.174;2023-02-25T00:36:32;2.37;;;2.37;;
673;SDS011;319;48.764;9.174;2023-02-25T00:38:59;1.87;;;1.87;;
673;SDS011;319;48.764;9.174;2023-02-25T00:41:27;2.10;;;2.10;;
673;SDS011;319;48.764;9.174;2023-02-25T00:43:55;2.00;;;2.00;;
673;SDS011;319;48.764;9.174;2023-02-25T00:46:24;2.10;;;2.10;;
673;SDS011;319;48.764;9.174;2023-02-25T00:48:52;2.00;;;2.00;;
673;SDS011;319;48.764;9.174;2023-02-25T00:51:20;2.00;;;2.00;;
673;SDS011;319;48.764;9.174;2023-02-25T00:53:49;2.40;;;2.40;;
673;SDS011;319;48.764;9.174;2023-02-25T00:56:16;2.40;;;2.40;;
673;SDS011;319;48.764;9.174;2023-02-25T00:58:45;2.00;;;2.00;;
673;SDS011;319;48.764;9.174;2023-02-25T01:01:15;2.20;;;2.20;;
673;SDS011;319;48.764;9.174;2023-02-25T01:03:43;3.23;;;3.13;;
673;SDS011;319;48.764;9.174;2023-02-25T01:06:10;2.00;;;2.00;;
673;SDS011;319;48.764;9.174;2023-02-25T01:08:36;1.67;;;1.67;;
673;SDS011;319;48.764;9.174;2023-02-25T01:11:09;1.80;;;1.80;;
673;SDS011;319;48.764;9.174;2023-02-25T01:13:37;1.70;;;1.70;;
673;SDS011;319;48.764;9.174;2023-02-25T01:16:10;2.20;;;2.20;;
673;SDS011;319;48.764;9.174;2023-02-25T01:18:37;1.73;;;1.73;;
673;SDS011;319;48.764;9.174;2023-02-25T01:21:05;1.73;;;1.73;;
673;SDS011;319;48.764;9.174;2023-02-25T01:23:32;2.00;;;2.00;;
673;SDS011;319;48.764;9.174;2023-02-25T01:25:58;1.40;;;1.40;;
673;SDS011;319;48.764;9.174;2023-02-25T01:28:27;1.30;;;1.30;;
673;SDS011;319;48.764;9.174;2023-02-25T01:30:54;1.40;;;1.40;;
673;SDS011;319;48.764;9.174;2023-02-25T01:33:22;1.70;;;1.70;;
673;SDS011;319;48.764;9.174;2023-02-25T01:35:49;1.30;;;1.30;;
673;SDS011;319;48.764;9.174;2023-02-25T01:38:15;1.30;;;1.30;;
673;SDS011;319;48.764;9.174;2023-02-25T01:40:42;1.40;;;1.40;;
673;SDS011;319;48.764;9.174;2023-02-25T01:43:11;1.30;;;1.30;;
673;SDS011;319;48.764;9.174;2023-02-25T01:45:40;1.10;;;1.10;;
673;SDS011;319;48.764;9.174;2023-02-25T01:48:09;1.30;;;1.30;;
673;SDS011;319;48.764;9.174;2023-02-25T01:50:42;1.60;;;1.60;;
673;SDS011;319;48.764;9.174;2023-02-25T01:53:14;2.40;;;2.40;;
673;SDS011;319;48.764;9.174;2023-02-25T01:55:44;1.80;;;1.80;;
673;SDS011;319;48.764;9.174;2023-02-25T01:58:11;1.40;;;1.40;;
673;SDS011;319;48.764;9.174;2023-02-25T02:00:38;1.40;;;1.40;;
673;SDS011;319;48.764;9.174;2023-02-25T02:03:05;1.47;;;1.47;;
673;SDS011;319;48.764;9.174;2023-02-25T02:05:44;1.27;;;1.27;;
673;SDS011;319;48.764;9.174;2023-02-25T02:08:19;1.20;;;1.20;;
673;SDS011;319;48.764;9.174;2023-02-25T02:10:47;1.40;;;1.40;;
673;SDS011;319;48.764;9.174;2023-02-25T02:13:14;1.20;;;1.20;;
673;SDS011;319;48.764;9.174;2023-02-25T02:15:43;1.30;;;1.30;;
673;SDS011;319;48.764;9.174;2023-02-25T02:18:17;1.30;;;1.30;;
673;SDS011;319;48.764;9.174;2023-02-25T02:20:50;1.20;;;1.20;;
673;SDS011;319;48.764;9.174;2023-02-25T02:23:34;1.40;;;1.40;;
673;SDS011;319;48.764;9.174;2023-02-25T02:29:22;1.20;;;1.20;;
673;SDS011;319;48.764;9.174;2023-02-25T02:32:13;1.10;;;1.10;;
673;SDS011;319;48.764;9.174;2023-02-25T02:34:48;1.20;;;1.20;;
673;SDS011;319;48.764;9.174;2023-02-25T02:37:25;1.13;;;1.13;;
673;SDS011;319;48.764;9.174;2023-02-25T02:40:01;1.20;;;1.20;;
673;SDS011;319;48.764;9.174;2023-02-25T02:42:40;1.40;;;1.40;;
673;SDS011;319;48.764;9.174;2023-02-25T02:45:10;1.20;;;1.20;;
673;SDS011;319;48.764;9.174;2023-02-25T02:47:44;1.37;;;1.37;;
673;SDS011;319;48.764;9.174;2023-02-25T02:50:17;1.20;;;1.20;;
673;SDS011;319;48.764;9.174;2023-02-25T02:52:52;1.10;;;1.10;;
673;SDS011;319;48.764;9.174;2023-02-25T02:55:22;1.20;;;1.20;;
673;SDS011;319;48.764;9.174;2023-02-25T02:57:52;1.10;;;1.10;;
673;SDS011;319;48.764;9.174;2023-02-25T03:00:29;1.20;;;1.20;;
673;SDS011;319;48.764;9.174;2023-02-25T03:03:03;1.20;;;1.20;;
673;SDS011;319;48.764;9.174;2023-02-25T03:05:34;1.20;;;1.20;;
673;SDS011;319;48.764;9.174;2023-02-25T03:08:04;1.30;;;1.30;;
673;SDS011;319;48.764;9.174;2023-02-25T03:10:34;1.20;;;1.20;;
673;SDS011;319;48.764;9.174;2023-02-25T03:13:02;1.30;;;1.30;;
673;SDS011;319;48.764;9.174;2023-02-25T03:15:29;1.20;;;1.20;;
673;SDS011;319;48.764;9.174;2023-02-25T03:17:58;1.20;;;1.20;;
673;SDS011;319;48.764;9.174;2023-02-25T03:20:31;1.10;;;1.10;;
673;SDS011;319;48.764;9.174;2023-02-25T03:23:03;1.10;;;1.10;;
673;SDS011;319;48.764;9.174;2023-02-25T03:25:34;1.10;;;1.10;;
673;SDS011;319;48.764;9.174;2023-02-25T03:28:14;1.20;;;1.20;;
673;SDS011;319;48.764;9.174;2023-02-25T03:30:50;1.20;;;1.20;;
673;SDS011;319;48.764;9.174;2023-02-25T03:33:24;1.20;;;1.20;;
673;SDS011;319;48.764;9.174;2023-02-25T03:35:56;1.10;;;1.10;;
673;SDS011;319;48.764;9.174;2023-02-25T03:38:27;1.30;;;1.30;;
673;SDS011;319;48.764;9.174;2023-02-25T03:40:56;1.30;;;1.30;;
673;SDS011;319;48.764;9.174;2023-02-25T03:43:27;1.40;;;1.40;;
673;SDS011;319;48.764;9.174;2023-02-25T03:45:57;1.30;;;1.30;;
673;SDS011;319;48.764;9.174;2023-02-25T03:48:25;1.30;;;1.30;;
673;SDS011;319;48.764;9.174;2023-02-25T03:50:53;1.20;;;1.20;;
673;SDS011;319;48.764;9.174;2023-02-25T03:53:25;1.30;;;1.30;;
673;SDS011;319;48.764;9.174;2023-02-25T03:55:52;1.30;;;1.30;;
673;SDS011;319;48.764;9.174;2023-02-25T03:58:20;1.30;;;1.30;;
673;SDS011;319;48.764;9.174;2023-02-25T04:00:47;1.20;;;1.20;;
673;SDS011;319;48.764;9.174;2023-02-25T04:03:19;1.20;;;1.20;;
673;SDS011;319;48.764;9.174;2023-02-25T04:05:47;1.40;;;1.40;;
673;SDS011;319;48.764;9.174;2023-02-25T04:08:15;1.10;;;1.10;;
673;SDS011;319;48.764;9.174;2023-02-25T04:10:42;1.20;;;1.20;;
673;SDS011;319;48.764;9.174;2023-02-25T04:13:09;1.30;;;1.30;;
673;SDS011;319;48.764;9.174;2023-02-25T04:15:36;1.20;;;1.20;;
673;SDS011;319;48.764;9.174;2023-02-25T04:18:03;1.40;;;1.40;;
673;SDS011;319;48.764;9.174;2023-02-25T04:20:30;1.30;;;1.30;;
673;SDS011;319;48.764;9.174;2023-02-25T04:22:57;1.30;;;1.30;;
673;SDS011;319;48.764;9.174;2023-02-25T04:25:25;1.40;;;1.40;;
673;SDS011;319;48.764;9.174;2023-02-25T04:27:52;1.50;;;1.50;;
673;SDS011;319;48.764;9.174;2023-02-25T04:30:19;1.30;;;1.30;;
673;SDS011;319;48.764;9.174;2023-02-25T04:32:46;1.40;;;1.40;;
673;SDS011;319;48.764;9.174;2023-02-25T04:35:13;1.40;;;1.40;;
673;SDS011;319;48.764;9.174;2023-02-25T04:37:40;1.20;;;1.20;;
673;SDS011;319;48.764;9.174;2023-02-25T04:40:09;1.40;;;1.40;;
673;SDS011;319;48.764;9.174;2023-02-25T04:42:41;1.40;;;1.40;;
673;SDS011;319;48.764;9.174;2023-02-25T04:45:09;1.30;;;1.30;;
673;SDS011;319;48.764;9.174;2023-02-25T04:47:36;1.30;;;1.30;;
673;SDS011;319;48.764;9.174;2023-02-25T04:50:04;1.30;;;1.30;;
673;SDS011;319;48.764;9.174;2023-02-25T04:52:32;1.30;;;1.30;;
673;SDS011;319;48.764;9.174;2023-02-25T04:54:59;1.30;;;1.30;;
673;SDS011;319;48.764;9.174;2023-02-25T04:57:26;1.40;;;1.40;;
673;SDS011;319;48.764;9.174;2023-02-25T04:59:54;1.20;;;1.20;;
673;SDS011;319;48.764;9.174;2023-02-25T05:02:21;1.30;;;1.30;;
673;SDS011;319;48.764;9.174;2023-02-25T05:04:47;1.20;;;1.20;;
673;SDS011;319;48.764;9.174;2023-02-25T05:07:14;1.30;;;1.30;;
673;SDS011;319;48.764;9.174;2023-02-25T05:09:41;1.30;;;1.30;;
673;SDS011;319;48.764;9.174;2023-02-25T05:12:08;1.20;;;1.20;;
673;SDS011;319;48.764;9.174;2023-02-25T05:14:35;1.20;;;1.20;;
673;SDS011;319;48.764;9.174;2023-02-25T05:17:03;1.40;;;1.40;;
673;SDS011;319;48.764;9.174;2023-02-25T05:19:30;1.40;;;1.40;;
673;SDS011;319;48.764;9.174;2023-02-25T05:21:59;1.20;;;1.20;;
673;SDS011;319;48.764;9.174;2023-02-25T05:24:26;1.30;;;1.30;;
673;SDS011;319;48.764;9.174;2023-02-25T05:26:52;1.30;;;1.30;;
673;SDS011;319;48.764;9.174;2023-02-25T05:29:19;1.40;;;1.40;;
673;SDS011;319;48.764;9.174;2023-02-25T05:31:46;1.30;;;1.30;;
673;SDS011;319;48.764;9.174;2023-02-25T05:34:16;1.40;;;1.40;;
673;SDS011;319;48.764;9.174;2023-02-25T05:36:43;1.30;;;1.30;;
673;SDS011;319;48.764;9.174;2023-02-25T05:39:10;1.40;;;1.40;;
673;SDS011;319;48.764;9.174;2023-02-25T05:41:38;1.30;;;1.30;;
673;SDS011;319;48.764;9.174;2023-02-25T05:44:05;1.40;;;1.40;;
673;SDS011;319;48.764;9.174;2023-02-25T05:46:32;1.30;;;1.30;;
673;SDS011;319;48.764;9.174;2023-02-25T05:49:01;1.30;;;1.30;;
673;SDS011;319;48.764;9.174;2023-02-25T05:51:30;1.40;;;1.40;;
673;SDS011;319;48.764;9.174;2023-02-25T05:53:56;1.40;;;1.40;;
673;SDS011;319;48.764;9.174;2023-02-25T05:56:24;1.30;;;1.30;;
673;SDS011;319;48.764;9.174;2023-02-25T05:58:52;1.30;;;1.30;;
673;SDS011;319;48.764;9.174;2023-02-25T06:01:21;1.30;;;1.30;;
673;SDS011;319;48.764;9.174;2023-02-25T06:03:51;1.20;;;1.20;;
673;SDS011;319;48.764;9.174;2023-02-25T06:06:23;1.40;;;1.40;;
673;SDS011;319;48.764;9.174;2023-02-25T06:08:52;1.40;;;1.40;;
673;SDS011;319;48.764;9.174;2023-02-25T06:11:20;1.30;;;1.30;;
673;SDS011;319;48.764;9.174;2023-02-25T06:13:47;1.30;;;1.30;;
673;SDS011;319;48.764;9.174;2023-02-25T06:16:15;1.20;;;1.20;;
673;SDS011;319;48.764;9.174;2023-02-25T06:18:42;1.30;;;1.30;;
673;SDS011;319;48.764;9.174;2023-02-25T06:21:10;1.10;;;1.10;;
673;SDS011;319;48.764;9.174;2023-02-25T06:23:39;1.20;;;1.20;;
673;SDS011;319;48.764;9.174;2023-02-25T06:26:09;1.30;;;1.30;;
673;SDS011;319;48.764;9.174;2023-02-25T06:28:37;1.20;;;1.20;;
673;SDS011;319;48.764;9.174;2023-02-25T06:31:05;1.30;;;1.30;;
673;SDS011;319;48.764;9.174;2023-02-25T06:33:33;1.30;;;1.30;;
673;SDS011;319;48.764;9.174;2023-02-25T06:35:59;1.30;;;1.30;;
673;SDS011;319;48.764;9.174;2023-02-25T06:38:28;1.30;;;1.30;;
673;SDS011;319;48.764;9.174;2023-02-25T06:40:55;1.10;;;1.10;;
673;SDS011;319;48.764;9.174;2023-02-25T06:43:23;1.10;;;1.10;;
673;SDS011;319;48.764;9.174;2023-02-25T06:45:50;1.20;;;1.20;;
673;SDS011;319;48.764;9.174;2023-02-25T06:48:16;1.20;;;1.20;;
673;SDS011;319;48.764;9.174;2023-02-25T06:50:43;1.20;;;1.20;;
673;SDS011;319;48.764;9.174;2023-02-25T06:53:10;1.20;;;1.20;;
673;SDS011;319;48.764;9.174;2023-02-25T06:55:37;1.10;;;1.10;;
673;SDS011;319;48.764;9.174;2023-02-25T06:58:04;1.10;;;1.10;;
673;SDS011;319;48.764;9.174;2023-02-25T07:00:32;1.30;;;1.30;;
673;SDS011;319;48.764;9.174;2023-02-25T07:02:59;1.20;;;1.20;;
673;SDS011;319;48.764;9.174;2023-02-25T07:05:27;1.20;;;1.20;;
673;SDS011;319;48.764;9.174;2023-02-25T07:07:54;1.10;;;1.10;;
673;SDS011;319;48.764;9.174;2023-02-25T07:10:21;1.30;;;1.30;;
673;SDS011;319;48.764;9.174;2023-02-25T07:12:48;1.10;;;1.10;;
673;SDS011;319;48.764;9.174;2023-02-25T07:15:14;1.20;;;1.20;;
673;SDS011;319;48.764;9.174;2023-02-25T07:17:43;1.20;;;1.20;;
673;SDS011;319;48.764;9.174;2023-02-25T07:20:10;1.20;;;1.20;;
673;SDS011;319;48.764;9.174;2023-02-25T07:22:38;1.20;;;1.20;;
673;SDS011;319;48.764;9.174;2023-02-25T07:25:06;1.20;;;1.20;;
673;SDS011;319;48.764;9.174;2023-02-25T07:27:39;1.20;;;1.20;;
673;SDS011;319;48.764;9.174;2023-02-25T07:30:07;1.30;;;1.30;;
673;SDS011;319;48.764;9.174;2023-02-25T07:32:37;1.20;;;1.20;;
673;SDS011;319;48.764;9.174;2023-02-25T07:35:06;1.00;;;1.00;;
673;SDS011;319;48.764;9.174;2023-02-25T07:37:34;1.13;;;1.13;;
673;SDS011;319;48.764;9.174;2023-02-25T07:40:01;1.10;;;1.10;;
673;SDS011;319;48.764;9.174;2023-02-25T07:42:52;1.20;;;1.20;;
673;SDS011;319;48.764;9.174;2023-02-25T07:45:19;1.20;;;1.20;;
673;SDS011;319;48.764;9.174;2023-02-25T07:47:46;1.10;;;1.10;;
673;SDS011;319;48.764;9.174;2023-02-25T07:50:15;1.20;;;1.20;;
673;SDS011;319;48.764;9.174;2023-02-25T07:52:41;1.10;;;1.10;;
673;SDS011;319;48.764;9.174;2023-02-25T07:55:09;1.20;;;1.20;;
673;SDS011;319;48.764;9.174;2023-02-25T07:57:37;1.20;;;1.20;;
673;SDS011;319;48.764;9.174;2023-02-25T08:00:04;1.20;;;1.20;;
673;SDS011;319;48.764;9.174;2023-02-25T08:02:34;1.20;;;1.20;;
673;SDS011;319;48.764;9.174;2023-02-25T08:05:01;1.20;;;1.20;;
673;SDS011;319;48.764;9.174;2023-02-25T08:07:29;1.20;;;1.20;;
673;SDS011;319;48.764;9.174;2023-02-25T08:09:56;1.20;;;1.20;;
673;SDS011;319;48.764;9.174;2023-02-25T08:12:23;1.20;;;1.20;;
673;SDS011;319;48.764;9.174;2023-02-25T08:14:50;1.20;;;1.20;;
673;SDS011;319;48.764;9.174;2023-02-25T08:17:17;1.37;;;1.37;;
673;SDS011;319;48.764;9.174;2023-02-25T08:19:44;1.20;;;1.20;;
673;SDS011;319;48.764;9.174;2023-02-25T08:22:11;1.20;;;1.20;;
673;SDS011;319;48.764;9.174;2023-02-25T08:24:40;1.27;;;1.27;;
673;SDS011;319;48.764;9.174;2023-02-25T08:27:07;1.10;;;1.10;;
673;SDS011;319;48.764;9.174;2023-02-25T08:29:34;1.20;;;1.20;;
673;SDS011;319;48.764;9.174;2023-02-25T08:32:01;1.30;;;1.30;;
673;SDS011;319;48.764;9.174;2023-02-25T08:34:27;1.10;;;1.10;;
673;SDS011;319;48.764;9.174;2023-02-25T08:36:54;1.10;;;1.10;;
673;SDS011;319;48.764;9.174;2023-02-25T08:39:21;1.20;;;1.20;;
673;SDS011;319;48.764;9.174;2023-02-25T08:42:02;1.20;;;1.20;;
673;SDS011;319;48.764;9.174;2023-02-25T08:44:32;1.20;;;1.20;;
673;SDS011;319;48.764;9.174;2023-02-25T08:46:59;1.10;;;1.10;;
673;SDS011;319;48.764;9.174;2023-02-25T08:49:26;1.20;;;1.20;;
673;SDS011;319;48.764;9.174;2023-02-25T08:51:53;1.20;;;1.20;;
673;SDS011;319;48.764;9.174;2023-02-25T08:54:19;1.10;;;1.10;;
673;SDS011;319;48.764;9.174;2023-02-25T08:56:48;1.30;;;1.30;;
673;SDS011;319;48.764;9.174;2023-02-25T08:59:17;1.20;;;1.20;;
673;SDS011;319;48.764;9.174;2023-02-25T09:01:44;1.30;;;1.30;;
673;SDS011;319;48.764;9.174;2023-02-25T09:04:12;1.10;;;1.10;;
673;SDS011;319;48.764;9.174;2023-02-25T09:06:41;1.30;;;1.30;;
673;SDS011;319;48.764;9.174;2023-02-25T09:09:08;1.20;;;1.20;;
673;SDS011;319;48.764;9.174;2023-02-25T09:11:37;1.20;;;1.20;;
673;SDS011;319;48.764;9.174;2023-02-25T09:14:04;1.30;;;1.30;;
673;SDS011;319;48.764;9.174;2023-02-25T09:16:32;1.20;;;1.20;;
673;SDS011;319;48.764;9.174;2023-02-25T09:18:59;1.20;;;1.20;;
673;SDS011;319;48.764;9.174;2023-02-25T09:21:26;1.20;;;1.20;;
673;SDS011;319;48.764;9.174;2023-02-25T09:23:55;1.20;;;1.20;;
673;SDS011;319;48.764;9.174;2023-02-25T09:26:22;1.20;;;1.20;;
673;SDS011;319;48.764;9.174;2023-02-25T09:28:49;1.20;;;1.20;;
673;SDS011;319;48.764;9.174;2023-02-25T09:31:16;1.07;;;1.07;;
673;SDS011;319;48.764;9.174;2023-02-25T09:33:44;1.20;;;1.20;;
673;SDS011;319;48.764;9.174;2023-02-25T09:36:13;1.20;;;1.20;;
673;SDS011;319;48.764;9.174;2023-02-25T09:38:41;1.10;;;1.10;;
673;SDS011;319;48.764;9.174;2023-02-25T09:41:15;1.20;;;1.20;;
673;SDS011;319;48.764;9.174;2023-02-25T09:43:51;1.10;;;1.10;;
673;SDS011;319;48.764;9.174;2023-02-25T09:46:30;1.20;;;1.20;;
673;SDS011;319;48.764;9.174;2023-02-25T09:49:00;1.20;;;1.20;;
673;SDS011;319;48.764;9.174;2023-02-25T09:51:34;1.10;;;1.10;;
673;SDS011;319;48.764;9.174;2023-02-25T09:54:08;1.20;;;1.20;;
673;SDS011;319;48.764;9.174;2023-02-25T09:56:41;1.00;;;1.00;;
673;SDS011;319;48.764;9.174;2023-02-25T09:59:10;1.00;;;1.00;;
673;SDS011;319;48.764;9.174;2023-02-25T10:01:41;1.10;;;1.10;;
673;SDS011;319;48.764;9.174;2023-02-25T10:04:15;1.20;;;1.20;;
673;SDS011;319;48.764;9.174;2023-02-25T10:06:48;1.10;;;1.10;;
673;SDS011;319;48.764;9.174;2023-02-25T10:09:17;1.20;;;1.20;;
673;SDS011;319;48.764;9.174;2023-02-25T10:11:52;1.10;;;1.10;;
673;SDS011;319;48.764;9.174;2023-02-25T10:17:21;1.00;;;1.00;;
673;SDS011;319;48.764;9.174;2023-02-25T10:20:00;1.10;;;1.10;;
673;SDS011;319;48.764;9.174;2023-02-25T10:22:44;1.20;;;1.20;;
673;SDS011;319;48.764;9.174;2023-02-25T10:25:22;1.20;;;1.20;;
673;SDS011;319;48.764;9.174;2023-02-25T10:27:52;1.10;;;1.10;;
673;SDS011;319;48.764;9.174;2023-02-25T10:30:26;1.00;;;1.00;;
673;SDS011;319;48.764;9.174;2023-02-25T10:32:57;1.03;;;1.03;;
673;SDS011;319;48.764;9.174;2023-02-25T10:35:31;1.10;;;1.10;;
673;SDS011;319;48.764;9.174;2023-02-25T10:38:03;1.10;;;1.10;;
673;SDS011;319;48.764;9.174;2023-02-25T10:40:30;1.10;;;1.10;;
673;SDS011;319;48.764;9.174;2023-02-25T10:42:58;1.10;;;1.10;;
673;SDS011;319;48.764;9.174;2023-02-25T10:45:28;1.20;;;1.20;;
673;SDS011;319;48.764;9.174;2023-02-25T10:47:57;1.17;;;1.17;;
673;SDS011;319;48.764;9.174;2023-02-25T10:50:32;1.10;;;1.10;;
673;SDS011;319;48.764;9.174;2023-02-25T10:52:59;1.20;;;1.20;;
673;SDS011;319;48.764;9.174;2023-02-25T10:55:29;1.10;;;1.10;;
673;SDS011;319;48.764;9.174;2023-02-25T10:58:04;1.10;;;1.10;;
673;SDS011;319;48.764;9.174;2023-02-25T11:00:32;1.20;;;1.20;;
673;SDS011;319;48.764;9.174;2023-02-25T11:03:00;1.10;;;1.10;;
673;SDS011;319;48.764;9.174;2023-02-25T11:05:30;1.10;;;1.10;;
673;SDS011;319;48.764;9.174;2023-02-25T11:08:02;1.20;;;1.20;;
673;SDS011;319;48.764;9.174;2023-02-25T11:10:32;1.20;;;1.20;;
673;SDS011;319;48.764;9.174;2023-02-25T11:12:59;1.10;;;1.10;;
673;SDS011;319;48.764;9.174;2023-02-25T11:15:30;1.20;;;1.20;;
673;SDS011;319;48.764;9.174;2023-02-25T11:18:02;1.20;;;1.20;;
673;SDS011;319;48.764;9.174;2023-02-25T11:20:32;1.10;;;1.10;;
673;SDS011;319;48.764;9.174;2023-02-25T11:23:01;1.10;;;1.10;;
673;SDS011;319;48.764;9.174;2023-02-25T11:25:34;1.10;;;1.10;;
673;SDS011;319;48.764;9.174;2023-02-25T11:28:03;1.10;;;1.10;;
673;SDS011;319;48.764;9.174;2023-02-25T11:30:34;1.00;;;1.00;;
673;SDS011;319;48.764;9.174;2023-02-25T11:33:03;1.10;;;1.10;;
673;SDS011;319;48.764;9.174;2023-02-25T11:35:34;1.10;;;1.10;;
673;SDS011;319;48.764;9.174;2023-02-25T11:38:13;1.10;;;1.10;;
673;SDS011;319;48.764;9.174;2023-02-25T11:40:48;1.30;;;1.30;;
673;SDS011;319;48.764;9.174;2023-02-25T11:43:16;1.10;;;1.10;;
673;SDS011;319;48.764;9.174;2023-02-25T11:45:52;1.20;;;1.20;;
673;SDS011;319;48.764;9.174;2023-02-25T11:48:21;1.17;;;1.17;;
673;SDS011;319;48.764;9.174;2023-02-25T11:50:53;1.10;;;1.10;;
673;SDS011;319;48.764;9.174;2023-02-25T11:53:30;1.13;;;1.13;;
673;SDS011;319;48.764;9.174;2023-02-25T11:56:16;1.20;;;1.20;;
673;SDS011;319;48.764;9.174;2023-02-25T11:58:51;1.10;;;1.10;;
673;SDS011;319;48.764;9.174;2023-02-25T12:01:33;1.20;;;1.20;;
673;SDS011;319;48.764;9.174;2023-02-25T12:04:24;1.20;;;1.20;;
673;SDS011;319;48.764;9.174;2023-02-25T12:07:12;1.20;;;1.20;;
673;SDS011;319;48.764;9.174;2023-02-25T12:10:09;1.20;;;1.20;;
673;SDS011;319;48.764;9.174;2023-02-25T12:15:49;1.20;;;1.20;;
673;SDS011;319;48.764;9.174;2023-02-25T12:18:40;1.10;;;1.10;;
673;SDS011;319;48.764;9.174;2023-02-25T12:21:33;1.10;;;1.10;;
673;SDS011;319;48.764;9.174;2023-02-25T12:33:46;1.30;;;1.30;;
673;SDS011;319;48.764;9.174;2023-02-25T12:36:42;1.20;;;1.20;;
673;SDS011;319;48.764;9.174;2023-02-25T12:42:19;1.30;;;1.30;;
673;SDS011;319;48.764;9.174;2023-02-25T12:45:05;1.10;;;1.10;;
673;SDS011;319;48.764;9.174;2023-02-25T12:48:01;1.20;;;1.20;;
673;SDS011;319;48.764;9.174;2023-02-25T12:51:10;1.10;;;1.10;;
673;SDS011;319;48.764;9.174;2023-02-25T12:53:48;1.20;;;1.20;;
673;SDS011;319;48.764;9.174;2023-02-25T12:59:36;1.20;;;1.20;;
673;SDS011;319;48.764;9.174;2023-02-25T13:02:17;1.30;;;1.30;;
673;SDS011;319;48.764;9.174;2023-02-25T13:08:04;1.20;;;1.20;;
673;SDS011;319;48.764;9.174;2023-02-25T13:10:56;1.10;;;1.10;;
673;SDS011;319;48.764;9.174;2023-02-25T13:13:39;1.20;;;1.20;;
673;SDS011;319;48.764;9.174;2023-02-25T13:16:32;1.20;;;1.20;;
673;SDS011;319;48.764;9.174;2023-02-25T13:19:13;1.20;;;1.20;;
673;SDS011;319;48.764;9.174;2023-02-25T13:21:58;1.10;;;1.10;;
673;SDS011;319;48.764;9.174;2023-02-25T13:24:34;1.20;;;1.20;;
673;SDS011;319;48.764;9.174;2023-02-25T13:27:22;1.10;;;1.10;;
673;SDS011;319;48.764;9.174;2023-02-25T13:30:18;1.10;;;1.10;;
673;SDS011;319;48.764;9.174;2023-02-25T13:32:53;1.10;;;1.10;;
673;SDS011;319;48.764;9.174;2023-02-25T13:35:31;1.10;;;1.10;;
673;SDS011;319;48.764;9.174;2023-02-25T13:38:13;1.10;;;1.10;;
673;SDS011;319;48.764;9.174;2023-02-25T13:44:01;1.20;;;1.20;;
673;SDS011;319;48.764;9.174;2023-02-25T13:46:55;1.20;;;1.20;;
673;SDS011;319;48.764;9.174;2023-02-25T13:52:48;1.10;;;1.10;;
673;SDS011;319;48.764;9.174;2023-02-25T13:55:36;1.10;;;1.10;;
673;SDS011;319;48.764;9.174;2023-02-25T13:58:17;1.00;;;1.00;;
673;SDS011;319;48.764;9.174;2023-02-25T14:00:57;1.10;;;1.10;;
673;SDS011;319;48.764;9.174;2023-02-25T14:06:55;1.40;;;1.40;;
673;SDS011;319;48.764;9.174;2023-02-25T14:09:36;1.30;;;1.30;;
673;SDS011;319;48.764;9.174;2023-02-25T14:12:13;1.20;;;1.20;;
673;SDS011;319;48.764;9.174;2023-02-25T14:18:07;1.30;;;1.30;;
673;SDS011;319;48.764;9.174;2023-02-25T14:20:45;1.37;;;1.37;;
673;SDS011;319;48.764;9.174;2023-02-25T14:23:21;1.30;;;1.30;;
673;SDS011;319;48.764;9.174;2023-02-25T14:26:03;1.40;;;1.40;;
673;SDS011;319;48.764;9.174;2023-02-25T14:28:46;1.40;;;1.40;;
673;SDS011;319;48.764;9.174;2023-02-25T14:31:26;1.30;;;1.30;;
673;SDS011;319;48.764;9.174;2023-02-25T14:34:04;1.30;;;1.30;;
673;SDS011;319;48.764;9.174;2023-02-25T14:37:00;1.40;;;1.40;;
673;SDS011;319;48.764;9.174;2023-02-25T14:39:42;1.30;;;1.30;;
673;SDS011;319;48.764;9.174;2023-02-25T14:42:22;1.40;;;1.40;;
673;SDS011;319;48.764;9.174;2023-02-25T14:45:10;1.30;;;1.30;;
673;SDS011;319;48.764;9.174;2023-02-25T14:47:47;1.30;;;1.30;;
673;SDS011;319;48.764;9.174;2023-02-25T14:50:21;1.20;;;1.20;;
673;SDS011;319;48.764;9.174;2023-02-25T14:53:01;1.37;;;1.37;;
673;SDS011;319;48.764;9.174;2023-02-25T14:55:54;1.30;;;1.30;;
673;SDS011;319;48.764;9.174;2023-02-25T15:01:35;1.20;;;1.20;;
673;SDS011;319;48.764;9.174;2023-02-25T15:04:37;1.30;;;1.30;;
673;SDS011;319;48.764;9.174;2023-02-25T15:07:17;1.40;;;1.40;;
673;SDS011;319;48.764;9.174;2023-02-25T15:10:02;1.30;;;1.30;;
673;SDS011;319;48.764;9.174;2023-02-25T15:12:45;1.27;;;1.27;;
673;SDS011;319;48.764;9.174;2023-02-25T15:18:52;1.30;;;1.30;;
673;SDS011;319;48.764;9.174;2023-02-25T15:21:53;1.30;;;1.30;;
673;SDS011;319;48.764;9.174;2023-02-25T15:24:42;1.30;;;1.30;;
673;SDS011;319;48.764;9.174;2023-02-25T15:30:08;1.40;;;1.40;;
673;SDS011;319;48.764;9.174;2023-02-25T15:32:45;1.30;;;1.30;;
673;SDS011;319;48.764;9.174;2023-02-25T15:35:23;1.30;;;1.30;;
673;SDS011;319;48.764;9.174;2023-02-25T15:38:21;1.20;;;1.20;;
673;SDS011;319;48.764;9.174;2023-02-25T15:47:11;1.40;;;1.40;;
673;SDS011;319;48.764;9.174;2023-02-25T15:49:50;1.40;;;1.40;;
673;SDS011;319;48.764;9.174;2023-02-25T15:55:36;1.40;;;1.40;;
673;SDS011;319;48.764;9.174;2023-02-25T16:01:21;1.40;;;1.40;;
673;SDS011;319;48.764;9.174;2023-02-25T16:04:23;1.40;;;1.40;;
673;SDS011;319;48.764;9.174;2023-02-25T16:07:19;1.40;;;1.40;;
673;SDS011;319;48.764;9.174;2023-02-25T16:10:06;1.30;;;1.30;;
673;SDS011;319;48.764;9.174;2023-02-25T16:12:49;1.40;;;1.40;;
673;SDS011;319;48.764;9.174;2023-02-25T16:15:20;1.30;;;1.30;;
673;SDS011;319;48.764;9.174;2023-02-25T16:17:53;1.30;;;1.30;;
673;SDS011;319;48.764;9.174;2023-02-25T16:20:22;1.20;;;1.20;;
673;SDS011;319;48.764;9.174;2023-02-25T16:22:55;1.20;;;1.20;;
673;SDS011;319;48.764;9.174;2023-02-25T16:25:27;1.20;;;1.20;;
673;SDS011;319;48.764;9.174;2023-02-25T16:28:04;1.30;;;1.30;;
673;SDS011;319;48.764;9.174;2023-02-25T16:30:41;1.40;;;1.40;;
673;SDS011;319;48.764;9.174;2023-02-25T16:33:16;1.40;;;1.40;;
673;SDS011;319;48.764;9.174;2023-02-25T16:35:56;3.40;;;3.30;;
673;SDS011;319;48.764;9.174;2023-02-25T16:38:33;3.30;;;3.20;;
673;SDS011;319;48.764;9.174;2023-02-25T16:41:08;5.00;;;4.90;;
673;SDS011;319;48.764;9.174;2023-02-25T16:43:38;4.27;;;4.17;;
673;SDS011;319;48.764;9.174;2023-02-25T16:46:08;4.60;;;4.50;;
673;SDS011;319;48.764;9.174;2023-02-25T16:48:38;3.90;;;3.80;;
673;SDS011;319;48.764;9.174;2023-02-25T16:51:17;3.70;;;3.60;;
673;SDS011;319;48.764;9.174;2023-02-25T16:53:49;2.80;;;2.80;;
673;SDS011;319;48.764;9.174;2023-02-25T16:56:20;2.13;;;2.13;;
673;SDS011;319;48.764;9.174;2023-02-25T17:01:45;4.53;;;4.43;;
673;SDS011;319;48.764;9.174;2023-02-25T17:04:15;4.20;;;4.10;;
673;SDS011;319;48.764;9.174;2023-02-25T17:06:48;4.20;;;4.10;;
673;SDS011;319;48.764;9.174;2023-02-25T17:09:32;5.00;;;4.90;;
673;SDS011;319;48.764;9.174;2023-02-25T17:11:59;4.87;;;4.77;;
673;SDS011;319;48.764;9.174;2023-02-25T17:14:29;3.60;;;3.50;;
673;SDS011;319;48.764;9.174;2023-02-25T17:16:56;4.10;;;4.00;;
673;SDS011;319;48.764;9.174;2023-02-25T17:19:24;4.50;;;4.40;;
673;SDS011;319;48.764;9.174;2023-02-25T17:21:52;4.80;;;4.70;;
673;SDS011;319;48.764;9.174;2023-02-25T17:24:21;4.83;;;4.73;;